createdAt,value
2017-06-27T00:00:50.975Z,0
2017-06-27T00:01:52.776Z,0
2017-06-27T00:02:54.660Z,0
2017-06-27T00:03:56.541Z,0
2017-06-27T00:04:58.406Z,0
2017-06-27T00:06:12.565Z,0
2017-06-27T00:07:14.442Z,0
2017-06-27T00:08:16.304Z,0
2017-06-27T00:09:18.189Z,0
2017-06-27T00:10:19.986Z,0
2017-06-27T00:11:21.788Z,0
2017-06-27T00:12:23.667Z,0
2017-06-27T00:13:25.528Z,0
2017-06-27T00:14:27.406Z,0
2017-06-27T00:15:41.536Z,0
2017-06-27T00:16:43.401Z,0
2017-06-27T00:17:45.280Z,0
2017-06-27T00:18:47.143Z,0
2017-06-27T00:19:48.964Z,0
2017-06-27T00:20:50.763Z,0
2017-06-27T00:21:52.647Z,0
2017-06-27T00:22:54.526Z,0
2017-06-27T00:23:56.409Z,0
2017-06-27T00:25:10.573Z,0
2017-06-27T00:26:12.447Z,0
2017-06-27T00:27:14.313Z,0
2017-06-27T00:28:16.191Z,0
2017-06-27T00:29:18.008Z,0
2017-06-27T00:30:19.819Z,0
2017-06-27T00:31:21.664Z,0
2017-06-27T00:32:23.460Z,0
2017-06-27T00:33:25.283Z,0
2017-06-27T00:34:39.436Z,0
2017-06-27T00:35:41.322Z,0
2017-06-27T00:36:43.207Z,0
2017-06-27T00:37:45.093Z,0
2017-06-27T00:38:46.917Z,0
2017-06-27T00:39:48.735Z,0
2017-06-27T00:40:50.601Z,0
2017-06-27T00:41:52.480Z,0
2017-06-27T00:42:54.352Z,0
2017-06-27T00:44:08.516Z,0
2017-06-27T00:45:10.391Z,0
2017-06-27T00:46:12.256Z,0
2017-06-27T00:47:14.109Z,0
2017-06-27T00:48:15.920Z,0
2017-06-27T00:49:17.738Z,0
2017-06-27T00:50:19.617Z,0
2017-06-27T00:51:21.483Z,0
2017-06-27T00:52:23.364Z,0
2017-06-27T00:53:37.516Z,0
2017-06-27T00:54:39.391Z,0
2017-06-27T00:55:41.257Z,0
2017-06-27T00:56:43.141Z,0
2017-06-27T00:57:44.965Z,0
2017-06-27T00:58:46.778Z,0
2017-06-27T00:59:48.645Z,0
2017-06-27T01:00:50.527Z,0
2017-06-27T01:01:52.409Z,0
2017-06-27T01:03:06.561Z,0
2017-06-27T01:04:08.424Z,0
2017-06-27T01:05:10.286Z,0
2017-06-27T01:06:12.152Z,0
2017-06-27T01:07:13.975Z,0
2017-06-27T01:08:15.774Z,0
2017-06-27T01:09:17.651Z,0
2017-06-27T01:10:19.515Z,0
2017-06-27T01:11:21.369Z,0
2017-06-27T01:12:35.505Z,0
2017-06-27T01:13:37.367Z,0
2017-06-27T01:14:39.243Z,0
2017-06-27T01:15:41.106Z,0
2017-06-27T01:16:42.931Z,0
2017-06-27T01:17:44.730Z,0
2017-06-27T01:18:46.607Z,0
2017-06-27T01:19:48.470Z,0
2017-06-27T01:20:50.349Z,0
2017-06-27T01:22:04.498Z,0
2017-06-27T01:23:06.364Z,0
2017-06-27T01:24:08.250Z,0
2017-06-27T01:25:10.132Z,0
2017-06-27T01:26:11.950Z,0
2017-06-27T01:27:13.751Z,0
2017-06-27T01:28:15.610Z,0
2017-06-27T01:29:17.488Z,0
2017-06-27T01:30:19.349Z,0
2017-06-27T01:31:33.485Z,0
2017-06-27T01:32:35.369Z,0
2017-06-27T01:33:37.250Z,0
2017-06-27T01:34:39.107Z,0
2017-06-27T01:35:40.909Z,0
2017-06-27T01:36:42.725Z,0
2017-06-27T01:37:44.581Z,0
2017-06-27T01:38:46.450Z,0
2017-06-27T01:39:48.326Z,0
2017-06-27T01:41:02.461Z,0
2017-06-27T01:42:04.339Z,0
2017-06-27T01:43:06.216Z,0
2017-06-27T01:44:08.078Z,0
2017-06-27T01:45:09.898Z,0
2017-06-27T01:46:11.714Z,0
2017-06-27T01:47:13.573Z,0
2017-06-27T01:48:15.455Z,0
2017-06-27T01:49:17.337Z,0
2017-06-27T01:50:31.468Z,0
2017-06-27T01:51:33.331Z,0
2017-06-27T01:52:35.193Z,0
2017-06-27T01:53:37.053Z,0
2017-06-27T01:54:38.880Z,0
2017-06-27T01:55:40.699Z,0
2017-06-27T01:56:42.575Z,0
2017-06-27T01:57:44.438Z,0
2017-06-27T01:58:46.301Z,0
2017-06-27T02:00:00.429Z,0
2017-06-27T02:01:02.293Z,0
2017-06-27T02:02:04.147Z,0
2017-06-27T02:03:06.003Z,0
2017-06-27T02:04:07.811Z,0
2017-06-27T02:05:09.631Z,0
2017-06-27T02:06:11.493Z,0
2017-06-27T02:07:13.372Z,0
2017-06-27T02:08:15.232Z,0
2017-06-27T02:09:29.379Z,0
2017-06-27T02:10:31.239Z,0
2017-06-27T02:11:33.122Z,0
2017-06-27T02:12:35.002Z,0
2017-06-27T02:13:36.826Z,0
2017-06-27T02:14:38.628Z,0
2017-06-27T02:15:40.504Z,0
2017-06-27T02:16:42.360Z,0
2017-06-27T02:17:44.217Z,0
2017-06-27T02:18:58.355Z,0
2017-06-27T02:20:00.231Z,0
2017-06-27T02:21:02.094Z,0
2017-06-27T02:22:03.970Z,0
2017-06-27T02:23:05.769Z,0
2017-06-27T02:24:07.567Z,0
2017-06-27T02:25:09.431Z,0
2017-06-27T02:26:11.314Z,0
2017-06-27T02:27:13.193Z,0
2017-06-27T02:28:27.346Z,0
2017-06-27T02:29:29.229Z,0
2017-06-27T02:30:31.109Z,0
2017-06-27T02:31:32.971Z,0
2017-06-27T02:32:34.773Z,0
2017-06-27T02:33:36.595Z,0
2017-06-27T02:34:38.476Z,0
2017-06-27T02:35:40.353Z,0
2017-06-27T02:36:42.217Z,0
2017-06-27T02:37:56.368Z,0
2017-06-27T02:38:58.225Z,0
2017-06-27T02:40:00.151Z,5
2017-06-27T02:41:02.062Z,5
2017-06-27T02:42:03.874Z,5
2017-06-27T02:43:05.680Z,5
2017-06-27T02:44:07.560Z,5
2017-06-27T02:45:09.439Z,5
2017-06-27T02:46:11.298Z,5
2017-06-27T02:47:25.414Z,10
2017-06-27T02:48:27.279Z,10
2017-06-27T02:49:29.148Z,10
2017-06-27T02:50:31.011Z,10
2017-06-27T02:51:32.833Z,10
2017-06-27T02:52:34.642Z,10
2017-06-27T02:53:36.520Z,15
2017-06-27T02:54:38.390Z,15
2017-06-27T02:55:40.271Z,15
2017-06-27T02:56:54.407Z,15
2017-06-27T02:57:56.294Z,20
2017-06-27T02:58:58.178Z,20
2017-06-27T03:00:00.045Z,25
2017-06-27T03:01:01.867Z,25
2017-06-27T03:02:03.671Z,25
2017-06-27T03:03:05.558Z,30
2017-06-27T03:04:07.442Z,30
2017-06-27T03:05:09.326Z,35
2017-06-27T03:06:23.484Z,40
2017-06-27T03:07:25.370Z,40
2017-06-27T03:08:27.231Z,45
2017-06-27T03:09:29.092Z,50
2017-06-27T03:10:30.900Z,50
2017-06-27T03:11:32.705Z,55
2017-06-27T03:12:34.593Z,60
2017-06-27T03:13:36.474Z,60
2017-06-27T03:14:38.360Z,65
2017-06-27T03:15:52.500Z,70
2017-06-27T03:16:54.379Z,75
2017-06-27T03:17:56.249Z,75
2017-06-27T03:18:58.115Z,75
2017-06-27T03:19:59.940Z,75
2017-06-27T03:21:01.765Z,75
2017-06-27T03:22:03.651Z,80
2017-06-27T03:23:05.540Z,80
2017-06-27T03:24:07.423Z,80
2017-06-27T03:25:21.584Z,80
2017-06-27T03:26:23.466Z,80
2017-06-27T03:27:25.351Z,80
2017-06-27T03:28:27.213Z,85
2017-06-27T03:29:29.023Z,85
2017-06-27T03:30:30.847Z,90
2017-06-27T03:31:32.732Z,95
2017-06-27T03:32:34.597Z,95
2017-06-27T03:33:36.459Z,100
2017-06-27T03:34:50.595Z,100
2017-06-27T03:35:52.458Z,105
2017-06-27T03:36:54.325Z,115
2017-06-27T03:37:56.191Z,125
2017-06-27T03:38:58.015Z,150
2017-06-27T03:39:59.821Z,160
2017-06-27T03:41:01.682Z,160
2017-06-27T03:42:03.546Z,165
2017-06-27T03:43:05.406Z,185
2017-06-27T03:44:19.547Z,210
2017-06-27T03:45:21.411Z,225
2017-06-27T03:46:23.293Z,230
2017-06-27T03:47:25.181Z,215
2017-06-27T03:48:27.009Z,185
2017-06-27T03:49:28.814Z,200
2017-06-27T03:50:30.701Z,220
2017-06-27T03:51:32.584Z,195
2017-06-27T03:52:34.451Z,150
2017-06-27T03:53:48.608Z,155
2017-06-27T03:54:50.475Z,150
2017-06-27T03:55:52.361Z,150
2017-06-27T03:56:54.224Z,155
2017-06-27T03:57:56.032Z,155
2017-06-27T03:58:57.859Z,160
2017-06-27T03:59:59.724Z,165
2017-06-27T04:01:01.610Z,170
2017-06-27T04:02:03.495Z,170
2017-06-27T04:03:17.639Z,175
2017-06-27T04:04:19.522Z,180
2017-06-27T04:05:21.392Z,180
2017-06-27T04:06:23.278Z,180
2017-06-27T04:07:25.083Z,180
2017-06-27T04:08:26.891Z,185
2017-06-27T04:09:28.772Z,200
2017-06-27T04:10:30.637Z,210
2017-06-27T04:11:32.523Z,205
2017-06-27T04:12:46.679Z,200
2017-06-27T04:13:48.542Z,205
2017-06-27T04:14:50.416Z,205
2017-06-27T04:15:52.297Z,205
2017-06-27T04:16:54.103Z,210
2017-06-27T04:17:55.906Z,205
2017-06-27T04:18:57.770Z,195
2017-06-27T04:19:59.630Z,190
2017-06-27T04:21:01.498Z,200
2017-06-27T04:22:15.690Z,210
2017-06-27T04:23:17.535Z,215
2017-06-27T04:24:19.421Z,215
2017-06-27T04:25:21.291Z,215
2017-06-27T04:26:23.100Z,210
2017-06-27T04:27:24.902Z,225
2017-06-27T04:28:26.770Z,245
2017-06-27T04:29:28.659Z,250
2017-06-27T04:30:30.507Z,265
2017-06-27T04:31:44.645Z,280
2017-06-27T04:32:46.527Z,275
2017-06-27T04:33:48.396Z,285
2017-06-27T04:34:50.282Z,300
2017-06-27T04:35:52.114Z,310
2017-06-27T04:36:53.910Z,335
2017-06-27T04:37:55.782Z,345
2017-06-27T04:38:57.673Z,360
2017-06-27T04:39:59.556Z,370
2017-06-27T04:41:13.700Z,380
2017-06-27T04:42:15.587Z,385
2017-06-27T04:43:17.478Z,395
2017-06-27T04:44:19.368Z,395
2017-06-27T04:45:21.194Z,440
2017-06-27T04:46:23.016Z,405
2017-06-27T04:47:24.877Z,420
2017-06-27T04:48:26.751Z,465
2017-06-27T04:49:28.643Z,855
2017-06-27T04:50:42.801Z,555
2017-06-27T04:51:44.685Z,580
2017-06-27T04:52:46.564Z,830
2017-06-27T04:53:48.435Z,855
2017-06-27T04:54:50.240Z,890
2017-06-27T04:55:52.070Z,875
2017-06-27T04:56:53.938Z,840
2017-06-27T04:57:55.805Z,785
2017-06-27T04:58:57.695Z,700
2017-06-27T05:00:11.862Z,795
2017-06-27T05:01:13.746Z,775
2017-06-27T05:02:15.618Z,645
2017-06-27T05:03:17.483Z,520
2017-06-27T05:04:19.294Z,495
2017-06-27T05:05:21.106Z,540
2017-06-27T05:06:22.972Z,545
2017-06-27T05:07:24.864Z,580
2017-06-27T05:08:26.772Z,645
2017-06-27T05:09:40.909Z,450
2017-06-27T05:10:42.801Z,435
2017-06-27T05:11:44.688Z,465
2017-06-27T05:12:46.557Z,460
2017-06-27T05:13:48.366Z,430
2017-06-27T05:14:50.175Z,440
2017-06-27T05:15:52.064Z,435
2017-06-27T05:16:53.930Z,465
2017-06-27T05:17:55.823Z,535
2017-06-27T05:19:09.978Z,570
2017-06-27T05:20:11.848Z,610
2017-06-27T05:21:13.742Z,590
2017-06-27T05:22:15.627Z,570
2017-06-27T05:23:17.436Z,555
2017-06-27T05:24:19.247Z,570
2017-06-27T05:25:21.116Z,575
2017-06-27T05:26:22.989Z,555
2017-06-27T05:27:24.882Z,590
2017-06-27T05:28:39.049Z,535
2017-06-27T05:29:40.942Z,505
2017-06-27T05:30:42.833Z,465
2017-06-27T05:31:44.702Z,500
2017-06-27T05:32:46.531Z,510
2017-06-27T05:33:48.343Z,510
2017-06-27T05:34:50.211Z,500
2017-06-27T05:35:52.091Z,500
2017-06-27T05:36:53.980Z,495
2017-06-27T05:38:08.141Z,480
2017-06-27T05:39:10.005Z,455
2017-06-27T05:40:11.878Z,410
2017-06-27T05:41:13.741Z,380
2017-06-27T05:42:15.553Z,385
2017-06-27T05:43:17.365Z,425
2017-06-27T05:44:19.251Z,455
2017-06-27T05:45:21.123Z,485
2017-06-27T05:46:22.995Z,510
2017-06-27T05:47:37.141Z,495
2017-06-27T05:48:39.031Z,480
2017-06-27T05:49:40.922Z,460
2017-06-27T05:50:42.792Z,450
2017-06-27T05:51:44.623Z,455
2017-06-27T05:52:46.453Z,470
2017-06-27T05:53:48.331Z,485
2017-06-27T05:54:50.222Z,500
2017-06-27T05:55:52.100Z,500
2017-06-27T05:57:06.307Z,530
2017-06-27T05:58:08.186Z,560
2017-06-27T05:59:10.053Z,580
2017-06-27T06:00:11.949Z,585
2017-06-27T06:01:13.781Z,590
2017-06-27T06:02:15.611Z,590
2017-06-27T06:03:17.506Z,510
2017-06-27T06:04:19.488Z,485
2017-06-27T06:05:21.410Z,490
2017-06-27T06:06:35.558Z,495
2017-06-27T06:07:37.447Z,495
2017-06-27T06:08:39.332Z,490
2017-06-27T06:09:41.206Z,490
2017-06-27T06:10:43.033Z,490
2017-06-27T06:11:44.873Z,505
2017-06-27T06:12:46.728Z,535
2017-06-27T06:13:48.616Z,565
2017-06-27T06:14:50.483Z,555
2017-06-27T06:16:04.647Z,545
2017-06-27T06:17:06.536Z,520
2017-06-27T06:18:08.430Z,490
2017-06-27T06:19:10.321Z,485
2017-06-27T06:20:12.153Z,490
2017-06-27T06:21:13.986Z,495
2017-06-27T06:22:15.973Z,495
2017-06-27T06:23:17.837Z,495
2017-06-27T06:24:19.753Z,485
2017-06-27T06:25:33.916Z,495
2017-06-27T06:26:35.804Z,500
2017-06-27T06:27:37.760Z,520
2017-06-27T06:28:39.645Z,520
2017-06-27T06:29:41.447Z,530
2017-06-27T06:30:43.344Z,545
2017-06-27T06:31:45.349Z,575
2017-06-27T06:32:47.312Z,595
2017-06-27T06:33:49.174Z,610
2017-06-27T06:35:03.347Z,620
2017-06-27T06:36:05.229Z,615
2017-06-27T06:37:07.122Z,615
2017-06-27T06:38:08.991Z,615
2017-06-27T06:39:10.812Z,630
2017-06-27T06:40:12.645Z,615
2017-06-27T06:41:14.506Z,610
2017-06-27T06:42:16.399Z,595
2017-06-27T06:43:18.275Z,575
2017-06-27T06:44:32.420Z,555
2017-06-27T06:45:34.288Z,515
2017-06-27T06:46:36.176Z,440
2017-06-27T06:47:38.046Z,440
2017-06-27T06:48:39.909Z,470
2017-06-27T06:49:41.705Z,465
2017-06-27T06:50:43.593Z,455
2017-06-27T06:51:45.461Z,480
2017-06-27T06:52:47.347Z,545
2017-06-27T06:54:01.513Z,570
2017-06-27T06:55:03.399Z,550
2017-06-27T06:56:05.266Z,485
2017-06-27T06:57:07.137Z,425
2017-06-27T06:58:08.965Z,425
2017-06-27T06:59:10.792Z,435
2017-06-27T07:00:12.660Z,435
2017-06-27T07:01:14.558Z,445
2017-06-27T07:02:16.440Z,465
2017-06-27T07:03:30.580Z,500
2017-06-27T07:04:32.446Z,505
2017-06-27T07:05:34.318Z,540
2017-06-27T07:06:36.188Z,590
2017-06-27T07:07:38.002Z,620
2017-06-27T07:08:39.829Z,610
2017-06-27T07:09:41.703Z,605
2017-06-27T07:10:43.595Z,625
2017-06-27T07:11:45.484Z,690
2017-06-27T07:12:59.645Z,715
2017-06-27T07:14:01.518Z,720
2017-06-27T07:15:03.410Z,695
2017-06-27T07:16:05.279Z,690
2017-06-27T07:17:07.092Z,710
2017-06-27T07:18:08.927Z,740
2017-06-27T07:19:10.794Z,750
2017-06-27T07:20:12.689Z,755
2017-06-27T07:21:14.578Z,760
2017-06-27T07:22:28.722Z,740
2017-06-27T07:23:30.590Z,730
2017-06-27T07:24:32.485Z,735
2017-06-27T07:25:34.350Z,780
2017-06-27T07:26:36.165Z,770
2017-06-27T07:27:37.998Z,735
2017-06-27T07:28:39.886Z,695
2017-06-27T07:29:41.759Z,685
2017-06-27T07:30:43.655Z,680
2017-06-27T07:31:57.820Z,660
2017-06-27T07:32:59.709Z,620
2017-06-27T07:34:01.602Z,590
2017-06-27T07:35:03.477Z,575
2017-06-27T07:36:05.309Z,565
2017-06-27T07:37:07.140Z,560
2017-06-27T07:38:09.014Z,570
2017-06-27T07:39:10.908Z,570
2017-06-27T07:40:12.798Z,585
2017-06-27T07:41:26.942Z,585
2017-06-27T07:42:28.815Z,590
2017-06-27T07:43:30.710Z,595
2017-06-27T07:44:32.604Z,605
2017-06-27T07:45:34.435Z,635
2017-06-27T07:46:36.264Z,660
2017-06-27T07:47:38.156Z,680
2017-06-27T07:48:40.047Z,695
2017-06-27T07:49:41.917Z,700
2017-06-27T07:50:56.134Z,695
2017-06-27T07:51:58.004Z,685
2017-06-27T07:52:59.893Z,680
2017-06-27T07:54:01.767Z,685
2017-06-27T07:55:03.595Z,700
2017-06-27T07:56:05.407Z,705
2017-06-27T07:57:07.278Z,715
2017-06-27T07:58:09.174Z,730
2017-06-27T07:59:11.058Z,730
2017-06-27T08:00:25.202Z,730
2017-06-27T08:01:27.077Z,715
2017-06-27T08:02:28.962Z,705
2017-06-27T08:03:30.831Z,700
2017-06-27T08:04:32.643Z,705
2017-06-27T08:05:34.453Z,705
2017-06-27T08:06:36.344Z,695
2017-06-27T08:07:38.235Z,685
2017-06-27T08:08:40.127Z,660
2017-06-27T08:09:54.270Z,630
2017-06-27T08:10:56.159Z,600
2017-06-27T08:11:58.022Z,590
2017-06-27T08:12:59.892Z,580
2017-06-27T08:14:01.706Z,585
2017-06-27T08:15:03.537Z,580
2017-06-27T08:16:05.422Z,570
2017-06-27T08:17:07.297Z,565
2017-06-27T08:18:09.187Z,555
2017-06-27T08:19:23.330Z,540
2017-06-27T08:20:25.198Z,535
2017-06-27T08:21:27.067Z,530
2017-06-27T08:22:28.935Z,535
2017-06-27T08:23:30.750Z,535
2017-06-27T08:24:32.582Z,525
2017-06-27T08:25:34.474Z,520
2017-06-27T08:26:36.362Z,525
2017-06-27T08:27:38.233Z,540
2017-06-27T08:28:52.382Z,555
2017-06-27T08:29:54.273Z,560
2017-06-27T08:30:56.163Z,565
2017-06-27T08:31:58.054Z,570
2017-06-27T08:32:59.887Z,570
2017-06-27T08:34:01.719Z,575
2017-06-27T08:35:03.610Z,590
2017-06-27T08:36:05.504Z,600
2017-06-27T08:37:07.371Z,615
2017-06-27T08:38:21.520Z,615
2017-06-27T08:39:23.383Z,610
2017-06-27T08:40:25.254Z,610
2017-06-27T08:41:27.127Z,620
2017-06-27T08:42:28.953Z,615
2017-06-27T08:43:30.762Z,625
2017-06-27T08:44:32.628Z,650
2017-06-27T08:45:34.495Z,690
2017-06-27T08:46:36.363Z,720
2017-06-27T08:47:50.510Z,745
2017-06-27T08:48:52.401Z,760
2017-06-27T08:49:54.268Z,770
2017-06-27T08:50:56.134Z,780
2017-06-27T08:51:57.945Z,790
2017-06-27T08:52:59.759Z,805
2017-06-27T08:54:01.653Z,815
2017-06-27T08:55:03.549Z,820
2017-06-27T08:56:05.439Z,825
2017-06-27T08:57:19.586Z,825
2017-06-27T08:58:21.476Z,830
2017-06-27T08:59:23.348Z,825
2017-06-27T09:00:25.220Z,820
2017-06-27T09:01:27.029Z,820
2017-06-27T09:02:28.842Z,815
2017-06-27T09:03:30.720Z,825
2017-06-27T09:04:32.611Z,820
2017-06-27T09:05:34.510Z,825
2017-06-27T09:06:48.673Z,815
2017-06-27T09:07:50.561Z,820
2017-06-27T09:08:52.437Z,825
2017-06-27T09:09:54.310Z,825
2017-06-27T09:10:56.141Z,830
2017-06-27T09:11:57.956Z,840
2017-06-27T09:12:59.854Z,835
2017-06-27T09:14:01.744Z,840
2017-06-27T09:15:03.621Z,850
2017-06-27T09:16:17.786Z,865
2017-06-27T09:17:19.654Z,880
2017-06-27T09:18:21.548Z,890
2017-06-27T09:19:23.436Z,905
2017-06-27T09:20:25.253Z,905
2017-06-27T09:21:27.089Z,905
2017-06-27T09:22:28.957Z,905
2017-06-27T09:23:30.852Z,890
2017-06-27T09:24:32.742Z,880
2017-06-27T09:25:46.916Z,880
2017-06-27T09:26:48.803Z,875
2017-06-27T09:27:50.675Z,865
2017-06-27T09:28:52.544Z,860
2017-06-27T09:29:54.356Z,845
2017-06-27T09:30:56.197Z,850
2017-06-27T09:31:58.093Z,860
2017-06-27T09:32:59.979Z,860
2017-06-27T09:34:01.855Z,855
2017-06-27T09:35:16.021Z,850
2017-06-27T09:36:17.915Z,855
2017-06-27T09:37:19.814Z,855
2017-06-27T09:38:21.704Z,865
2017-06-27T09:39:23.544Z,875
2017-06-27T09:40:25.376Z,885
2017-06-27T09:41:27.270Z,885
2017-06-27T09:42:29.171Z,880
2017-06-27T09:43:31.059Z,875
2017-06-27T09:44:45.202Z,880
2017-06-27T09:45:47.087Z,885
2017-06-27T09:46:48.948Z,890
2017-06-27T09:47:50.842Z,900
2017-06-27T09:48:52.675Z,905
2017-06-27T09:49:54.492Z,910
2017-06-27T09:50:56.386Z,910
2017-06-27T09:51:58.221Z,910
2017-06-27T09:53:00.051Z,915
2017-06-27T09:54:14.249Z,920
2017-06-27T09:55:16.137Z,925
2017-06-27T09:56:18.005Z,930
2017-06-27T09:57:19.883Z,930
2017-06-27T09:58:21.719Z,940
2017-06-27T09:59:23.546Z,950
2017-06-27T10:00:25.426Z,955
2017-06-27T10:01:27.315Z,945
2017-06-27T10:02:29.189Z,925
2017-06-27T10:03:43.362Z,890
2017-06-27T10:04:45.256Z,860
2017-06-27T10:05:47.148Z,825
2017-06-27T10:06:49.023Z,785
2017-06-27T10:07:50.854Z,760
2017-06-27T10:08:52.667Z,745
2017-06-27T10:09:54.561Z,730
2017-06-27T10:10:56.430Z,725
2017-06-27T10:11:58.301Z,725
2017-06-27T10:13:12.449Z,735
2017-06-27T10:14:14.342Z,735
2017-06-27T10:15:16.227Z,740
2017-06-27T10:16:18.105Z,745
2017-06-27T10:17:19.937Z,755
2017-06-27T10:18:21.765Z,770
2017-06-27T10:19:23.641Z,775
2017-06-27T10:20:25.527Z,785
2017-06-27T10:21:27.399Z,795
2017-06-27T10:22:41.569Z,800
2017-06-27T10:23:43.456Z,810
2017-06-27T10:24:45.335Z,815
2017-06-27T10:25:47.226Z,825
2017-06-27T10:26:49.062Z,830
2017-06-27T10:27:50.894Z,835
2017-06-27T10:28:52.767Z,835
2017-06-27T10:29:54.660Z,835
2017-06-27T10:30:56.551Z,835
2017-06-27T10:32:10.701Z,830
2017-06-27T10:33:12.574Z,825
2017-06-27T10:34:14.466Z,825
2017-06-27T10:35:16.361Z,820
2017-06-27T10:36:18.194Z,825
2017-06-27T10:37:20.024Z,825
2017-06-27T10:38:21.896Z,830
2017-06-27T10:39:23.792Z,840
2017-06-27T10:40:25.682Z,850
2017-06-27T10:41:39.853Z,870
2017-06-27T10:42:41.739Z,865
2017-06-27T10:43:43.613Z,870
2017-06-27T10:44:45.483Z,870
2017-06-27T10:45:47.317Z,875
2017-06-27T10:46:49.134Z,875
2017-06-27T10:47:51.023Z,875
2017-06-27T10:48:52.912Z,870
2017-06-27T10:49:54.782Z,865
2017-06-27T10:51:08.931Z,870
2017-06-27T10:52:10.821Z,860
2017-06-27T10:53:12.716Z,865
2017-06-27T10:54:14.590Z,865
2017-06-27T10:55:16.426Z,860
2017-06-27T10:56:18.277Z,860
2017-06-27T10:57:20.123Z,870
2017-06-27T10:58:21.989Z,870
2017-06-27T10:59:23.867Z,870
2017-06-27T11:00:38.031Z,870
2017-06-27T11:01:39.920Z,855
2017-06-27T11:02:41.796Z,855
2017-06-27T11:03:43.660Z,840
2017-06-27T11:04:45.475Z,835
2017-06-27T11:05:47.287Z,830
2017-06-27T11:06:49.162Z,835
2017-06-27T11:07:51.052Z,840
2017-06-27T11:08:52.944Z,845
2017-06-27T11:10:07.111Z,835
2017-06-27T11:11:08.986Z,830
2017-06-27T11:12:10.877Z,825
2017-06-27T11:13:12.749Z,815
2017-06-27T11:14:14.585Z,805
2017-06-27T11:15:16.394Z,795
2017-06-27T11:16:18.263Z,780
2017-06-27T11:17:20.134Z,765
2017-06-27T11:18:22.000Z,750
2017-06-27T11:19:36.150Z,735
2017-06-27T11:20:38.041Z,730
2017-06-27T11:21:39.934Z,725
2017-06-27T11:22:41.806Z,725
2017-06-27T11:23:43.643Z,720
2017-06-27T11:24:45.477Z,720
2017-06-27T11:25:47.371Z,720
2017-06-27T11:26:49.260Z,715
2017-06-27T11:27:51.160Z,715
2017-06-27T11:29:05.329Z,715
2017-06-27T11:30:07.217Z,700
2017-06-27T11:31:09.090Z,685
2017-06-27T11:32:10.958Z,670
2017-06-27T11:33:12.774Z,640
2017-06-27T11:34:14.607Z,615
2017-06-27T11:35:16.476Z,590
2017-06-27T11:36:18.367Z,575
2017-06-27T11:37:20.233Z,575
2017-06-27T11:38:34.364Z,565
2017-06-27T11:39:36.249Z,560
2017-06-27T11:40:38.116Z,550
2017-06-27T11:41:39.991Z,540
2017-06-27T11:42:41.828Z,530
2017-06-27T11:43:43.658Z,530
2017-06-27T11:44:45.528Z,535
2017-06-27T11:45:47.392Z,545
2017-06-27T11:46:49.294Z,550
2017-06-27T11:48:03.473Z,560
2017-06-27T11:49:05.368Z,565
2017-06-27T11:50:07.263Z,570
2017-06-27T11:51:09.129Z,570
2017-06-27T11:52:10.941Z,570
2017-06-27T11:53:12.757Z,560
2017-06-27T11:54:14.629Z,550
2017-06-27T11:55:16.520Z,555
2017-06-27T11:56:18.410Z,565
2017-06-27T11:57:32.580Z,570
2017-06-27T11:58:34.463Z,570
2017-06-27T11:59:36.333Z,565
2017-06-27T12:00:38.206Z,560
2017-06-27T12:01:40.041Z,555
2017-06-27T12:02:41.873Z,560
2017-06-27T12:03:43.743Z,560
2017-06-27T12:04:45.635Z,575
2017-06-27T12:05:47.500Z,585
2017-06-27T12:07:01.669Z,600
2017-06-27T12:08:03.555Z,615
2017-06-27T12:09:05.429Z,625
2017-06-27T12:10:07.321Z,635
2017-06-27T12:11:09.154Z,635
2017-06-27T12:12:10.963Z,635
2017-06-27T12:13:12.852Z,640
2017-06-27T12:14:14.718Z,645
2017-06-27T12:15:16.590Z,650
2017-06-27T12:16:30.735Z,660
2017-06-27T12:17:32.623Z,670
2017-06-27T12:18:34.492Z,690
2017-06-27T12:19:36.361Z,690
2017-06-27T12:20:38.170Z,685
2017-06-27T12:21:39.983Z,675
2017-06-27T12:22:41.852Z,660
2017-06-27T12:23:43.742Z,650
2017-06-27T12:24:45.613Z,645
2017-06-27T12:25:59.782Z,635
2017-06-27T12:27:01.668Z,625
2017-06-27T12:28:03.546Z,610
2017-06-27T12:29:05.436Z,590
2017-06-27T12:30:07.269Z,565
2017-06-27T12:31:09.099Z,540
2017-06-27T12:32:10.974Z,505
2017-06-27T12:33:12.867Z,470
2017-06-27T12:34:14.760Z,445
2017-06-27T12:35:28.924Z,420
2017-06-27T12:36:30.810Z,405
2017-06-27T12:37:32.686Z,395
2017-06-27T12:38:34.581Z,390
2017-06-27T12:39:36.416Z,385
2017-06-27T12:40:38.248Z,380
2017-06-27T12:41:40.166Z,375
2017-06-27T12:42:42.064Z,370
2017-06-27T12:43:43.936Z,365
2017-06-27T12:44:58.105Z,360
2017-06-27T12:45:59.990Z,355
2017-06-27T12:47:01.868Z,355
2017-06-27T12:48:03.786Z,355
2017-06-27T12:49:05.641Z,365
2017-06-27T12:50:07.508Z,370
2017-06-27T12:51:09.481Z,370
2017-06-27T12:52:11.397Z,370
2017-06-27T12:53:13.309Z,375
2017-06-27T12:54:27.483Z,375
2017-06-27T12:55:29.350Z,380
2017-06-27T12:56:31.259Z,380
2017-06-27T12:57:33.148Z,380
2017-06-27T12:58:34.959Z,380
2017-06-27T12:59:36.839Z,390
2017-06-27T13:00:38.749Z,395
2017-06-27T13:01:40.639Z,400
2017-06-27T13:02:42.528Z,405
2017-06-27T13:03:56.707Z,410
2017-06-27T13:04:58.643Z,405
2017-06-27T13:06:00.578Z,400
2017-06-27T13:07:02.467Z,390
2017-06-27T13:08:04.329Z,395
2017-06-27T13:09:06.177Z,395
2017-06-27T13:10:08.103Z,385
2017-06-27T13:11:10.057Z,370
2017-06-27T13:12:12.021Z,365
2017-06-27T13:13:26.203Z,360
2017-06-27T13:14:28.084Z,360
2017-06-27T13:15:30.036Z,345
2017-06-27T13:16:32.012Z,345
2017-06-27T13:17:33.807Z,345
2017-06-27T13:18:35.618Z,345
2017-06-27T13:19:37.512Z,345
2017-06-27T13:20:39.401Z,350
2017-06-27T13:21:41.354Z,360
2017-06-27T13:22:55.589Z,380
2017-06-27T13:23:57.447Z,390
2017-06-27T13:24:59.313Z,380
2017-06-27T13:26:01.178Z,365
2017-06-27T13:27:02.989Z,350
2017-06-27T13:28:04.797Z,345
2017-06-27T13:29:06.665Z,350
2017-06-27T13:30:08.537Z,350
2017-06-27T13:31:10.423Z,355
2017-06-27T13:32:24.588Z,355
2017-06-27T13:33:26.456Z,350
2017-06-27T13:34:28.327Z,335
2017-06-27T13:35:30.212Z,330
2017-06-27T13:36:32.031Z,335
2017-06-27T13:37:33.840Z,345
2017-06-27T13:38:35.706Z,365
2017-06-27T13:39:37.583Z,380
2017-06-27T13:40:39.464Z,395
2017-06-27T13:41:53.613Z,410
2017-06-27T13:42:55.507Z,410
2017-06-27T13:43:57.394Z,405
2017-06-27T13:44:59.266Z,400
2017-06-27T13:46:01.153Z,395
2017-06-27T13:47:02.938Z,390
2017-06-27T13:48:04.806Z,380
2017-06-27T13:49:06.680Z,370
2017-06-27T13:50:08.598Z,360
2017-06-27T13:51:22.737Z,345
2017-06-27T13:52:24.627Z,330
2017-06-27T13:53:26.495Z,320
2017-06-27T13:54:28.367Z,310
2017-06-27T13:55:30.201Z,300
2017-06-27T13:56:32.035Z,290
2017-06-27T13:57:33.924Z,290
2017-06-27T13:58:35.814Z,285
2017-06-27T13:59:37.701Z,300
2017-06-27T14:00:51.846Z,310
2017-06-27T14:01:53.733Z,320
2017-06-27T14:02:55.623Z,330
2017-06-27T14:03:57.500Z,340
2017-06-27T14:04:59.331Z,345
2017-06-27T14:06:01.166Z,350
2017-06-27T14:07:03.051Z,360
2017-06-27T14:08:04.941Z,365
2017-06-27T14:09:06.830Z,375
2017-06-27T14:10:20.973Z,385
2017-06-27T14:11:22.857Z,395
2017-06-27T14:12:24.746Z,405
2017-06-27T14:13:26.645Z,425
2017-06-27T14:14:28.473Z,435
2017-06-27T14:15:30.284Z,440
2017-06-27T14:16:32.177Z,435
2017-06-27T14:17:34.066Z,430
2017-06-27T14:18:35.932Z,430
2017-06-27T14:19:50.073Z,430
2017-06-27T14:20:51.946Z,420
2017-06-27T14:21:53.856Z,410
2017-06-27T14:22:55.799Z,400
2017-06-27T14:23:57.661Z,400
2017-06-27T14:24:59.843Z,400
2017-06-27T14:26:01.787Z,405
2017-06-27T14:27:03.686Z,410
2017-06-27T14:28:05.559Z,415
2017-06-27T14:29:19.728Z,400
2017-06-27T14:30:21.618Z,380
2017-06-27T14:31:23.513Z,365
2017-06-27T14:32:25.383Z,355
2017-06-27T14:33:27.188Z,345
2017-06-27T14:34:29.003Z,345
2017-06-27T14:35:30.890Z,345
2017-06-27T14:36:32.765Z,345
2017-06-27T14:37:34.653Z,340
2017-06-27T14:38:48.848Z,335
2017-06-27T14:39:50.832Z,335
2017-06-27T14:40:52.726Z,330
2017-06-27T14:41:54.602Z,325
2017-06-27T14:42:56.432Z,315
2017-06-27T14:43:58.239Z,305